East Floyd, New York
Current Conditions -  °F | °C
As of 11:53 PM on Saturday 22 Nov 2014 (Local Time) from KRME Reporting Station
Light Rain Light Rain  
Wind Chill: 32°   Ceiling: 2200
Heat Index: 37°   Visibility: 5mi
Dew Point: 35°   Wind: 7mph
Humidity: 93%   Direction: 90°E
Pressure: 30.05"   Gusts: NA
Location:  43.2584°N, 75.2671°W
Report Text: KRME 230453Z AUTO 09006KT 5SM -RA BR OVC022 03/02 A3005 RMK AO2 RAB17 SLP180 P0001 T00280017 400281089
Loading
Personal Weather Stations






























Interactive Weather Map New forecast layout! Learn more

10-Day Weather Forecast

Advertisements
Track Severe Weather on mobile